Terminal Aerodrome Forecast
Issued by NWS Burlington, VT

Home | Current Version | Previous Version | Text Only | Print | Product List | Glossary On
Versions: 1 2 3 4 5 6 7 8 9 10 11 12 13 14 15 16 17 18 19 20 21 22 23
782
FTUS41 KBTV 250522
TAFBTV
TAF
KBTV 250522Z 2506/2606 VRB03KT 1/4SM FG VV002
      TEMPO 2507/2511 1/2SM FG OVC005
     FM251100 17009KT 3SM BR BKN015
     FM251300 18010G18KT P6SM BKN020
     FM251700 18014G24KT P6SM BKN025
     FM252100 19014G20KT 3SM +RA BR OVC020
     FM260100 27010G18KT 4SM -SHRA BR OVC020=

USA.gov is the U.S. government's official web portal to all federal, state and local government web resources and services.